Latest Weather Observations for Tasman Island

IDT60801

Issued at 9:51 am EST Wednesday 22 September 2021 (issued every 10 minutes, with the page automatically refreshed every 10 minutes)

About weather observations | Map of weather stations | Latest weather observations for TAS | Other Formats
Station Details ID: 094155 Name: TASMAN ISLAND Lat: -43.24 Lon: 148.00 Height: 240.0 m
Data from the previous 72 hours. | See also: Recent months at Tasman Island
Date/Time
EST
Temp
°C
App
Temp
°C
Dew
Point
°C
Rel
Hum
%
Delta-T
°C
Wind Press
QNH
hPa
Press
MSL
hPa
Rain since
9am
mm
Dir  Spd
km/h
Gust
km/h
Spd
kts
Gust
kts
22/09:30am 15.1 11.2 5.3 52 4.7 WNW 15 26 8 14 1015.4 1015.6 0.0
22/09:00am 14.9 11.8 5.4 53 4.6 WNW 11 22 6 12 1015.4 1015.6 0.0
22/08:30am 14.1 10.8 6.2 59 3.8 W 13 28 7 15 1015.3 1015.5 0.0
22/08:00am 13.4 10.0 6.0 61 3.6 WNW 13 28 7 15 1015.1 1015.3 0.0
22/07:30am 12.8 9.5 6.2 64 3.2 WNW 13 28 7 15 1015.2 1015.4 0.0
22/07:00am 12.2 9.3 6.7 69 2.7 WNW 11 26 6 14 1015.0 1015.2 0.0
22/06:30am 11.8 8.2 6.7 71 2.5 WNW 15 33 8 18 1014.9 1015.1 0.0
22/06:00am 11.4 8.6 6.9 74 2.2 WNW 11 32 6 17 1014.5 1014.7 0.0
22/05:30am 11.6 7.2 6.7 72 2.4 WNW 19 43 10 23 1014.1 1014.4 0.0
22/05:00am 11.1 7.6 7.0 76 2.0 WNW 15 28 8 15 1013.8 1014.1 0.0
22/04:30am 11.1 7.2 7.2 77 1.9 WNW 17 41 9 22 1013.9 1014.2 0.0
22/04:00am 10.6 7.1 7.1 79 1.7 WNW 15 32 8 17 1013.9 1014.2 0.0
22/03:30am 10.3 6.0 7.0 80 1.6 W 19 43 10 23 1014.0 1014.3 0.0
22/03:00am 10.0 7.5 6.7 80 1.6 W 9 28 5 15 1014.5 1014.7 0.0
22/02:30am 9.8 7.3 6.7 81 1.5 WNW 9 24 5 13 1015.0 1015.2 0.0
22/02:00am 9.7 6.8 6.4 80 1.6 WNW 11 24 6 13 1015.2 1015.4 0.0
22/01:30am 10.1 6.5 6.8 80 1.6 W 15 33 8 18 1015.4 1015.6 0.0
22/01:00am 9.9 7.0 6.4 79 1.6 W 11 28 6 15 1015.5 1015.7 0.0
22/12:30am 9.8 7.6 6.3 79 1.6 WNW 7 24 4 13 1015.5 1015.7 0.0
22/12:00am 9.7 7.2 6.4 80 1.6 WNW 9 28 5 15 1015.7 1015.9 0.0
 
Date/Time
EST
Temp
°C
App
Temp
°C
Dew
Point
°C
Rel
Hum
%
Delta-T
°C
Wind Press
QNH
hPa
Press
MSL
hPa
Rain since
9am
mm
Dir  Spd
km/h
Gust
km/h
Spd
kts
Gust
kts
21/11:30pm 9.8 7.2 6.2 78 1.7 WNW 9 26 5 14 1015.9 1016.1 0.0
21/11:00pm 9.8 7.6 6.2 78 1.7 WNW 7 20 4 11 1015.9 1016.1 0.0
21/10:30pm 10.1 7.2 6.3 77 1.8 WNW 11 30 6 16 1015.8 1016.0 0.0
21/10:00pm 10.0 7.4 6.2 77 1.8 NW 9 28 5 15 1015.9 1016.1 0.0
21/09:30pm 10.2 7.6 6.2 76 1.9 N 9 30 5 16 1015.8 1016.0 0.0
21/09:00pm 10.1 7.8 5.9 75 2.0 NNW 7 20 4 11 1016.0 1016.2 0.0
21/08:30pm 10.1 7.1 6.1 76 1.9 NW 11 28 6 15 1015.7 1015.9 0.0
21/08:00pm 10.2 7.2 6.2 76 1.9 NW 11 28 6 15 1015.7 1015.9 0.0
21/07:30pm 10.3 7.4 6.3 76 1.9 NE 11 39 6 21 1015.2 1015.4 0.0
21/07:00pm 10.3 6.9 6.1 75 2.0 WNW 13 46 7 25 1014.9 1015.1 0.0
21/06:30pm 10.3 7.6 5.7 73 2.1 W 9 32 5 17 1014.8 1015.0 0.0
21/06:00pm 10.3 7.6 5.7 73 2.1 SSE 9 33 5 18 1014.6 1014.8 0.0
21/05:30pm 10.3 7.2 5.5 72 2.2 WSW 11 32 6 17 1014.5 1014.7 0.0
21/05:00pm 10.1 7.3 5.1 71 2.3 W 9 35 5 19 1014.0 1014.3 0.0
21/04:30pm 9.9 7.0 4.9 71 2.3 SW 9 43 5 23 1014.1 1014.4 0.0
21/04:00pm 9.9 6.6 4.7 70 2.4 WNW 11 39 6 21 1014.2 1014.5 0.0
21/03:30pm 9.9 6.9 4.3 68 2.5 WNW 9 28 5 15 1014.2 1014.5 0.0
21/03:00pm 9.6 6.1 3.4 65 2.7 WSW 11 32 6 17 1014.1 1014.4 0.0
21/02:30pm 10.0 6.1 3.5 64 2.9 WNW 13 44 7 24 1014.0 1014.3 0.0
21/02:00pm 10.1 6.2 3.4 63 3.0 NW 13 35 7 19 1014.2 1014.5 0.0
21/01:30pm 9.3 6.0 2.2 61 3.0 WNW 9 28 5 15 1014.5 1014.7 0.0
21/01:00pm 8.8 5.5 2.2 63 2.8 SW 9 32 5 17 1014.8 1015.0 0.0
21/12:30pm 8.2 4.8 1.8 64 2.7 NW 9 30 5 16 1015.3 1015.5 0.0
21/12:00pm 8.2 4.0 1.8 64 2.7 NW 13 44 7 24 1015.5 1015.7 0.0
21/11:30am 7.4 2.8 1.7 67 2.4 NW 15 54 8 29 1015.6 1015.8 0.0
21/11:00am 7.0 3.2 1.5 68 2.3 WSW 11 43 6 23 1015.6 1015.8 0.0
21/10:30am 6.7 2.9 1.6 70 2.1 NW 11 33 6 18 1015.3 1015.5 0.0
21/10:00am 7.1 3.8 2.4 72 2.0 NW 9 28 5 15 1015.3 1015.5 0.0
21/09:30am 6.0 1.5 2.1 76 1.6 E 15 43 8 23 1015.2 1015.4 0.0
21/09:00am 5.4 0.6 2.4 81 1.2 W 17 52 9 28 1015.3 1015.5 5.0
21/08:30am 5.7 1.6 2.5 80 1.3 WNW 13 33 7 18 1014.8 1015.0 5.0
21/08:00am 5.8 1.3 2.1 77 1.5 SSW 15 44 8 24 1014.2 1014.5 5.0
21/07:40am 5.2 -0.1 1.9 79 1.3 WSW 19 67 10 36 1014.2 1014.5 5.0
21/07:30am 5.0 0.2 2.7 85 1.0 WSW 17 50 9 27 1014.5 1014.7 4.8
21/07:00am 5.5 1.1 2.7 82 1.2 NNE 15 33 8 18 1013.4 1013.7 4.8
21/06:30am 4.8 0.0 2.8 87 0.8 SW 17 50 9 27 1013.0 1013.3 4.8
21/06:00am 6.3 -1.8 1.2 70 2.1 SW 33 69 18 37 1012.3 1012.5 4.8
21/05:30am 5.7 -4.3 1.1 72 1.8 SW 43 70 23 38 1012.2 1012.4 4.8
21/05:00am 5.6 -3.9 1.5 75 1.7 SW 41 74 22 40 1011.8 1012.0 4.8
21/04:30am 5.0 -5.6 3.0 87 0.8 SW 48 69 26 37 1011.9 1012.1 4.8
21/04:00am 4.6 -6.2 2.1 84 1.0 SW 48 70 26 38 1011.3 1011.5 4.6
21/03:30am 5.8 -5.3 2.4 79 1.4 SW 50 74 27 40 1010.6 1010.8 4.6
21/03:00am 5.2 -5.5 2.6 83 1.1 SW 48 74 26 40 1010.3 1010.5 4.4
21/02:30am 5.2 -6.7 2.2 81 1.2 SW 54 78 29 42 1009.9 1010.2 4.2
21/02:00am 5.9 -4.3 3.2 83 1.1 SSW 46 70 25 38 1009.7 1010.0 4.2
21/01:30am 5.7 -2.6 4.0 89 0.7 SW 37 76 20 41 1009.4 1009.7 4.2
21/01:00am 5.8 -3.0 3.8 87 0.9 SW 39 70 21 38 1008.9 1009.1 4.0
21/12:33am 5.8 -1.3 3.5 85 1.0 SW 30 78 16 42 1008.6 1008.8 3.6
21/12:30am 5.4 -1.5 2.8 83 1.1 SW 28 65 15 35 1008.8 1009.0 3.6
21/12:00am 6.2 -5.0 2.1 75 1.7 SW 50 74 27 40 1008.1 1008.3 3.6
 
Date/Time
EST
Temp
°C
App
Temp
°C
Dew
Point
°C
Rel
Hum
%
Delta-T
°C
Wind Press
QNH
hPa
Press
MSL
hPa
Rain since
9am
mm
Dir  Spd
km/h
Gust
km/h
Spd
kts
Gust
kts
20/11:30pm 6.1 -3.1 3.6 84 1.1 SW 41 76 22 41 1007.6 1007.8 3.6
20/11:00pm 5.0 -6.3 3.2 88 0.8 SW 52 80 28 43 1007.2 1007.4 3.4
20/10:30pm 6.7 -3.5 3.1 78 1.5 SSW 46 76 25 41 1006.6 1006.8 3.2
20/10:00pm 6.6 -3.5 3.8 82 1.2 SW 46 72 25 39 1006.2 1006.4 3.2
20/09:30pm 6.3 -3.1 4.5 88 0.8 SSW 43 74 23 40 1005.6 1005.8 3.2
20/09:00pm 6.7 -2.8 3.7 81 1.3 SSW 43 76 23 41 1004.9 1005.1 3.0
20/08:30pm 6.8 -4.9 3.4 79 1.5 SW 54 78 29 42 1004.2 1004.4 3.0
20/08:01pm 7.2 -3.6 4.2 81 1.3 SW 50 102 27 55 1003.2 1003.4 3.0
20/08:00pm 7.4 -3.4 4.2 80 1.4 SW 50 78 27 42 1003.2 1003.4 3.0
20/07:30pm 7.1 -2.6 3.7 79 1.5 SW 44 85 24 46 1002.5 1002.7 3.0
20/07:16pm 7.3 -2.5 3.4 76 1.7 SW 44 91 24 49 1002.0 1002.1 3.0
20/07:00pm 7.8 -1.2 4.7 81 1.4 SW 41 70 22 38 1001.7 1001.8 3.0
20/06:30pm 7.0 -0.8 4.7 85 1.0 SW 35 76 19 41 1000.9 1001.1 2.8
20/06:10pm 5.4 -4.1 4.1 91 0.6 SW 43 93 23 50 1000.7 1000.9 2.8
20/06:08pm 5.8 -3.2 4.3 90 0.7 SW 41 93 22 50 1000.3 1000.5 2.6
20/06:07pm 6.3 -1.9 4.6 89 0.7 SW 37 93 20 50 1000.1 1000.3 2.2
20/06:05pm 6.7 0.3 5.2 90 0.7 WSW 28 93 15 50 1000.4 1000.6 2.2
20/06:00pm 6.4 -0.1 4.9 90 0.7 WSW 28 56 15 30 1000.5 1000.7 2.2
20/05:31pm 6.3 1.3 4.8 90 0.7 WNW 20 69 11 37 999.5 999.7 1.8
20/05:30pm 6.4 1.6 4.9 90 0.7 WNW 19 69 10 37 999.7 999.9 1.8
20/05:04pm 7.0 2.9 4.5 84 1.1 WNW 15 57 8 31 998.7 998.8 0.6
20/05:00pm 6.6 3.2 3.8 82 1.2 NNW 11 37 6 20 998.9 999.1 0.6
20/04:30pm 7.5 3.2 3.0 73 1.9 NNW 15 50 8 27 998.1 998.2 0.4
20/04:00pm 7.7 3.0 3.0 72 2.0 WNW 17 44 9 24 997.6 997.7 0.4
20/03:30pm 7.6 3.3 3.5 75 1.8 NW 15 52 8 28 997.2 997.3 0.4
20/03:00pm 6.6 1.8 2.7 76 1.7 NW 17 61 9 33 997.2 997.3 0.2
20/02:30pm 7.2 2.8 2.9 74 1.8 WSW 15 52 8 28 996.7 996.9 0.0
20/02:00pm 7.8 3.6 1.4 64 2.7 SSW 13 41 7 22 996.3 996.5 0.0
20/01:30pm 8.3 4.1 1.5 62 2.8 SW 13 39 7 21 995.9 996.1 0.0
20/01:00pm 8.2 3.5 0.9 60 3.0 WSW 15 44 8 24 995.8 996.0 0.0
20/12:30pm 7.9 3.2 0.9 61 2.9 WNW 15 41 8 22 995.7 995.9 0.0
20/12:00pm 8.3 3.1 2.3 66 2.6 WNW 19 46 10 25 996.0 996.2 0.0
20/11:36am 8.3 2.7 1.5 62 2.8 WNW 20 65 11 35 996.2 996.4 0.0
20/11:30am 8.3 2.6 0.8 59 3.1 WNW 20 54 11 29 996.1 996.3 0.0
20/11:00am 8.6 4.0 1.7 62 2.9 NW 15 37 8 20 996.4 996.6 0.0
20/10:30am 7.8 2.0 2.5 69 2.2 NW 22 56 12 30 996.1 996.3 0.0
20/10:14am 7.7 2.3 1.3 64 2.6 NW 19 50 10 27 995.9 996.1 0.0
20/10:00am 8.0 3.8 1.8 65 2.6 WNW 13 46 7 25 995.8 996.0 0.0
20/09:39am 8.2 1.3 2.7 68 2.3 WNW 28 54 15 29 996.0 996.2 0.0
20/09:30am 8.5 2.8 2.9 68 2.4 NW 22 43 12 23 996.1 996.3 0.0
20/09:22am 8.0 1.0 2.0 66 2.5 NW 28 52 15 28 995.9 996.1 0.0
20/09:00am 8.1 3.0 3.0 70 2.2 NW 19 44 10 24 995.9 996.1 0.8
20/08:30am 7.4 2.3 2.9 73 1.9 NW 19 41 10 22 995.8 996.0 0.8
20/08:00am 6.9 -1.8 2.2 72 2.0 WNW 37 63 20 34 995.3 995.5 0.8
20/07:35am 6.1 -2.9 2.6 78 1.5 WNW 39 57 21 31 995.0 995.1 0.8
20/07:30am 6.2 -3.1 2.7 78 1.5 WNW 41 54 22 29 995.0 995.1 0.8
20/07:00am 6.8 -4.4 1.7 70 2.1 WNW 50 72 27 39 994.0 994.1 0.8
20/06:35am 6.8 -2.4 1.5 69 2.2 WNW 39 61 21 33 994.2 994.3 0.8
20/06:30am 6.7 -2.0 1.8 71 2.0 WNW 37 54 20 29 994.3 994.4 0.8
20/06:00am 6.7 -3.2 1.8 71 2.0 WNW 43 69 23 37 993.8 993.9 0.8
20/05:30am 7.1 -4.5 1.4 67 2.3 WNW 52 76 28 41 993.7 993.8 0.8
20/05:00am 7.4 -4.0 0.8 63 2.7 WNW 50 76 27 41 993.7 993.8 0.8
20/04:30am 7.1 -1.8 0.8 64 2.5 WNW 37 63 20 34 994.2 994.3 0.8
20/04:02am 7.0 -1.9 0.9 65 2.5 WNW 37 56 20 30 994.2 994.3 0.8
20/04:00am 6.9 -2.8 0.8 65 2.5 WNW 41 56 22 30 994.2 994.3 0.8
20/03:30am 7.3 -2.7 1.2 65 2.5 WNW 43 63 23 34 994.6 994.7 0.8
20/03:00am 7.3 -0.7 1.4 66 2.4 NW 33 54 18 29 995.1 995.2 0.8
20/02:30am 7.2 -3.0 0.9 64 2.5 WNW 44 67 24 36 994.9 995.0 0.8
20/02:02am 7.5 -2.5 1.1 64 2.6 WNW 43 61 23 33 995.4 995.6 0.8
20/02:00am 7.5 -2.5 1.1 64 2.6 WNW 43 61 23 33 995.4 995.6 0.8
20/01:30am 7.9 -3.6 0.2 58 3.1 NW 50 70 27 38 995.6 995.8 0.8
20/01:04am 7.6 -2.4 1.2 64 2.6 WNW 43 61 23 33 996.1 996.3 0.8
20/01:00am 7.5 -2.1 1.4 65 2.5 WNW 41 57 22 31 996.2 996.4 0.8
20/12:30am 7.7 -2.4 1.3 64 2.6 NW 44 63 24 34 996.5 996.7 0.8
20/12:00am 7.9 -0.6 1.1 62 2.8 WNW 35 57 19 31 997.2 997.3 0.8
 
Date/Time
EST
Temp
°C
App
Temp
°C
Dew
Point
°C
Rel
Hum
%
Delta-T
°C
Wind Press
QNH
hPa
Press
MSL
hPa
Rain since
9am
mm
Dir  Spd
km/h
Gust
km/h
Spd
kts
Gust
kts
19/11:30pm 8.1 0.1 0.6 59 3.0 WNW 32 57 17 31 997.4 997.5 0.8
19/11:11pm 8.0 -0.2 0.3 58 3.1 WNW 33 63 18 34 997.5 997.6 0.8
19/11:00pm 8.0 -1.3 0.5 59 3.1 NW 39 54 21 29 997.4 997.5 0.8
19/10:35pm 8.0 -0.9 0.7 60 3.0 WNW 37 57 20 31 997.3 997.4 0.8
19/10:30pm 7.9 -1.1 0.2 58 3.1 WNW 37 56 20 30 997.3 997.4 0.8
19/10:00pm 8.3 -1.0 0.5 58 3.2 WNW 39 67 21 36 997.4 997.5 0.8
19/09:30pm 8.4 -1.9 0.1 56 3.3 NW 44 69 24 37 997.8 997.9 0.8
19/09:00pm 8.3 -1.3 1.2 61 3.0 WNW 41 69 22 37 998.5 998.6 0.8
19/08:30pm 8.3 -2.5 1.7 63 2.8 NW 48 69 26 37 998.2 998.3 0.8
19/08:12pm 8.4 1.4 1.8 63 2.8 NW 28 54 15 29 998.4 998.5 0.8
19/08:00pm 8.6 2.4 2.0 63 2.8 WNW 24 57 13 31 998.3 998.4 0.8
19/07:36pm 9.0 2.1 2.3 63 2.9 NW 28 57 15 31 998.2 998.3 0.8
19/07:30pm 9.0 2.8 2.1 62 2.9 NW 24 59 13 32 998.0 998.1 0.8
19/07:23pm 9.0 3.2 2.1 62 2.9 WNW 22 59 12 32 997.8 997.9 0.8
19/07:00pm 9.0 4.9 4.2 72 2.2 W 15 50 8 27 997.8 997.9 0.8
19/06:30pm 8.9 4.2 5.1 77 1.7 WNW 19 39 10 21 997.6 997.7 0.8
19/06:00pm 8.7 4.7 5.1 78 1.6 W 15 41 8 22 997.7 997.8 0.8
19/05:30pm 9.7 6.0 4.7 71 2.3 WSW 13 39 7 21 997.5 997.6 0.8
19/05:00pm 10.7 7.9 5.0 68 2.6 WSW 9 28 5 15 996.8 997.0 0.8
19/04:30pm 10.4 7.2 5.0 69 2.5 SW 11 33 6 18 996.7 996.9 0.8
19/04:00pm 10.8 8.0 5.1 68 2.7 SSW 9 28 5 15 996.7 996.9 0.8
19/03:30pm 10.8 7.5 6.4 74 2.1 N 13 52 7 28 996.8 997.0 0.8
19/03:00pm 12.3 8.1 5.9 65 3.1 WSW 17 39 9 21 996.4 996.6 0.8
19/02:30pm 13.0 9.7 6.6 65 3.1 WNW 13 37 7 20 996.6 996.8 0.8
19/02:00pm 12.5 8.0 5.9 64 3.2 W 19 52 10 28 996.2 996.4 0.8
19/01:30pm 13.4 4.7 6.0 61 3.6 WNW 41 63 22 34 996.2 996.4 0.8
19/01:00pm 12.5 6.5 8.8 78 1.9 WNW 30 56 16 30 996.8 997.0 0.8
19/12:58pm 12.4 6.8 8.9 79 1.8 WNW 28 50 15 27 996.9 997.1 0.8
19/12:30pm 11.1 8.3 10.0 93 0.6 WNW 15 33 8 18 997.7 997.8 0.8
19/12:00pm 11.9 8.9 7.6 75 2.1 W 13 35 7 19 997.9 998.0 0.2
19/11:59am 11.9 8.5 7.6 75 2.1 W 15 35 8 19 998.0 998.1 0.2
19/11:30am 14.0 5.7 5.9 58 3.9 NW 39 65 21 35 997.8 997.9 0.0
19/11:11am 13.6 5.6 5.5 58 3.9 NW 37 69 20 37 998.3 998.4 0.0
19/11:00am 13.6 5.9 5.3 57 4.0 NW 35 54 19 29 998.5 998.6 0.0
19/10:30am 14.4 5.5 5.0 53 4.5 NW 41 65 22 35 998.6 998.7 0.0
19/10:00am 13.7 5.4 4.3 53 4.4 NW 37 65 20 35 999.2 999.4 0.0

Other formats

Comma delimited format used in spreadsheet applications
http://www.bom.gov.au/fwo/IDT60801/IDT60801.95986.axf

JavaScript Object Notation format (JSON) in row-major order
http://www.bom.gov.au/fwo/IDT60801/IDT60801.95986.json

Data quality

Most of these data are generated automatically and are frequently updated. Quality checks on data are not normally performed. It is possible for incorrect values to appear. Refer to information at About Latest Weather Observations and please check the disclaimer before using these data.